Time;durP1;ratioP1;P1;durP2;ratioP2;P2;SDS_P1;SDS_P2;PMS_P1;PMS_P2;Temp;Humidity;BMP_temperature;BMP_pressure;BME280_temperature;BME280_humidity;BME280_pressure;Samples;Min_cycle;Max_cycle;Signal;HPM_P1;HPM_P2
2021/08/04 00:00:56;;;;;;;6.10;3.22;;;14.30;99.90;;;;;;5074032;28;20043;-79
2021/08/04 00:03:22;;;;;;;3.65;2.60;;;14.30;99.90;;;;;;5108782;28;20031;-79
2021/08/04 00:05:49;;;;;;;4.50;2.22;;;14.30;99.90;;;;;;5069450;28;20514;-79
2021/08/04 00:08:16;;;;;;;3.55;2.03;;;14.30;99.90;;;;;;5070850;28;20581;-79
2021/08/04 00:10:42;;;;;;;3.97;2.33;;;14.20;99.90;;;;;;5070291;28;20038;-79
2021/08/04 00:13:09;;;;;;;4.25;2.03;;;14.20;99.90;;;;;;5088012;28;20039;-79
2021/08/04 00:15:35;;;;;;;4.07;2.70;;;14.20;99.90;;;;;;5087484;28;20036;-79
2021/08/04 00:18:02;;;;;;;4.10;2.30;;;14.10;99.90;;;;;;5087822;28;20042;-79
2021/08/04 00:20:28;;;;;;;3.65;2.30;;;14.10;99.90;;;;;;5086428;28;20051;-79
2021/08/04 00:22:55;;;;;;;3.25;2.67;;;14.10;99.90;;;;;;5072439;28;20043;-79
2021/08/04 00:25:21;;;;;;;5.90;2.60;;;14.10;99.90;;;;;;5087355;28;20035;-79
2021/08/04 00:27:47;;;;;;;4.78;2.58;;;14.10;99.90;;;;;;5069086;28;20035;-79
2021/08/04 00:30:14;;;;;;;4.88;2.78;;;14.00;99.90;;;;;;5087593;28;20040;-79
2021/08/04 00:32:40;;;;;;;4.20;2.42;;;14.00;99.90;;;;;;5086946;28;20035;-79
2021/08/04 00:35:07;;;;;;;4.32;2.75;;;14.00;99.90;;;;;;5070266;28;20035;-79
2021/08/04 00:37:34;;;;;;;4.88;2.38;;;14.00;99.90;;;;;;5087675;28;20506;-79
2021/08/04 00:40:01;;;;;;;4.28;2.22;;;14.00;99.90;;;;;;5087603;28;20044;-79
2021/08/04 00:42:28;;;;;;;3.60;2.42;;;14.00;99.90;;;;;;5086340;28;20588;-79
2021/08/04 00:44:55;;;;;;;4.20;2.85;;;14.00;99.90;;;;;;5086779;28;20450;-79
2021/08/04 00:47:21;;;;;;;3.75;2.55;;;14.00;99.90;;;;;;5088636;28;20027;-79
2021/08/04 00:49:48;;;;;;;5.35;2.55;;;13.90;99.90;;;;;;5087060;28;20390;-79
2021/08/04 00:52:15;;;;;;;4.30;2.50;;;13.90;99.90;;;;;;5086587;28;20070;-79
2021/08/04 00:54:42;;;;;;;5.00;2.50;;;13.90;99.90;;;;;;5086474;28;20040;-79
2021/08/04 00:57:09;;;;;;;5.88;2.40;;;13.90;99.90;;;;;;5071192;28;20386;-79
2021/08/04 00:59:36;;;;;;;4.30;3.28;;;13.90;99.90;;;;;;5052680;28;20052;-79
2021/08/04 01:02:21;;;;;;;5.70;2.28;;;13.90;99.90;;;;;;5086495;28;20430;-79
2021/08/04 01:04:53;;;;;;;4.68;2.83;;;13.80;99.90;;;;;;5069818;28;20027;-79
2021/08/04 01:07:28;;;;;;;4.22;2.47;;;13.90;99.90;;;;;;5088778;28;20031;-75
2021/08/04 01:10:01;;;;;;;5.13;2.47;;;13.80;99.90;;;;;;5085325;28;20383;-79
2021/08/04 01:12:35;;;;;;;4.95;3.00;;;13.80;99.90;;;;;;5069245;28;20035;-79
2021/08/04 01:15:05;;;;;;;5.70;3.22;;;13.80;99.90;;;;;;5083917;28;20031;-78
2021/08/04 01:17:33;;;;;;;5.20;3.35;;;13.80;99.90;;;;;;5067188;28;20047;-79
2021/08/04 01:20:23;;;;;;;5.22;3.58;;;13.80;99.90;;;;;;5084428;28;20034;-79
2021/08/04 01:23:08;;;;;;;6.47;4.78;;;13.80;99.90;;;;;;5070142;28;20031;-78
2021/08/04 01:25:53;;;;;;;7.30;3.50;;;13.90;99.90;;;;;;5101805;28;20398;-79
2021/08/04 01:28:23;;;;;;;5.18;3.50;;;13.90;99.90;;;;;;5069211;28;20050;-78
2021/08/04 01:30:58;;;;;;;5.60;3.30;;;13.80;99.90;;;;;;5067911;28;20098;-79
2021/08/04 01:33:27;;;;;;;4.90;3.75;;;13.80;99.90;;;;;;5086295;28;20055;-78
2021/08/04 01:35:54;;;;;;;5.85;3.53;;;13.80;99.90;;;;;;5084954;28;20054;-78
2021/08/04 01:38:23;;;;;;;4.22;3.30;;;13.80;99.90;;;;;;5086588;28;20043;-78
2021/08/04 01:40:55;;;;;;;3.75;2.53;;;13.80;99.90;;;;;;5067029;28;20056;-79
2021/08/04 01:43:23;;;;;;;3.03;2.72;;;13.80;99.90;;;;;;5086186;28;20030;-78
2021/08/04 01:45:56;;;;;;;3.20;2.58;;;13.80;99.90;;;;;;5104292;28;20024;-78
2021/08/04 01:48:24;;;;;;;2.92;2.42;;;13.80;99.90;;;;;;5086318;28;20038;-75
2021/08/04 01:50:57;;;;;;;4.00;2.83;;;13.80;99.90;;;;;;5084216;28;20032;-75
2021/08/04 01:53:24;;;;;;;4.30;2.83;;;13.70;99.90;;;;;;5068884;28;20056;-75
2021/08/04 01:55:51;;;;;;;4.35;3.28;;;13.70;99.90;;;;;;5068491;28;20047;-75
2021/08/04 01:58:17;;;;;;;3.47;2.70;;;13.70;99.90;;;;;;5068872;28;20047;-78
2021/08/04 02:00:44;;;;;;;4.50;3.15;;;13.70;99.90;;;;;;5082203;28;20035;-78
2021/08/04 02:03:11;;;;;;;3.42;2.97;;;13.70;99.90;;;;;;5104616;28;20502;-79
2021/08/04 02:05:37;;;;;;;3.75;2.45;;;13.70;99.90;;;;;;5069385;28;20519;-78
2021/08/04 02:08:22;;;;;;;2.97;2.65;;;13.70;99.90;;;;;;5085708;28;20394;-75
2021/08/04 02:11:03;;;;;;;3.60;2.67;;;13.70;99.90;;;;;;5108285;27;20046;-75
2021/08/04 02:13:56;;;;;;;6.00;3.10;;;13.70;99.90;;;;;;5068685;28;20549;-75
2021/08/04 02:16:46;;;;;;;5.13;3.00;;;13.60;99.90;;;;;;5084454;28;20041;-75
2021/08/04 02:19:41;;;;;;;6.25;3.40;;;13.60;99.90;;;;;;5083473;28;20039;-75
2021/08/04 02:22:28;;;;;;;3.70;2.85;;;13.60;99.90;;;;;;5104648;28;20024;-75
2021/08/04 02:25:06;;;;;;;4.75;2.60;;;13.60;99.90;;;;;;5072913;28;20036;-78
2021/08/04 02:27:37;;;;;;;3.72;2.90;;;13.50;99.90;;;;;;5071759;28;20375;-78
2021/08/04 02:30:05;;;;;;;4.45;2.75;;;13.50;99.90;;;;;;5109268;27;20028;-78
2021/08/04 02:32:32;;;;;;;5.05;3.00;;;13.50;99.90;;;;;;5077290;28;20513;-79
2021/08/04 02:34:59;;;;;;;3.60;2.70;;;13.50;99.90;;;;;;5072688;28;20046;-79
2021/08/04 02:37:25;;;;;;;5.25;3.10;;;13.50;99.90;;;;;;5074759;28;20044;-78
2021/08/04 02:39:52;;;;;;;4.22;3.28;;;13.40;99.90;;;;;;5072880;28;20047;-78
2021/08/04 02:42:19;;;;;;;3.50;3.20;;;13.40;99.90;;;;;;5071055;28;20052;-78
2021/08/04 02:44:46;;;;;;;4.30;3.10;;;13.40;99.90;;;;;;5071407;28;20044;-78
2021/08/04 02:47:12;;;;;;;3.40;2.63;;;13.40;99.90;;;;;;5107985;28;20035;-79
2021/08/04 02:49:40;;;;;;;3.22;2.75;;;13.40;99.90;;;;;;5073819;28;20040;-78
2021/08/04 02:52:08;;;;;;;3.80;3.25;;;13.40;99.90;;;;;;5070097;28;20048;-78
2021/08/04 02:54:35;;;;;;;3.38;2.88;;;13.40;99.90;;;;;;5088715;28;20048;-78
2021/08/04 02:57:01;;;;;;;5.65;3.38;;;13.40;99.90;;;;;;5055092;28;20050;-78
2021/08/04 02:59:28;;;;;;;3.72;3.05;;;13.30;99.90;;;;;;5071921;28;20043;-78
2021/08/04 03:01:55;;;;;;;4.75;2.72;;;13.30;99.90;;;;;;5087522;28;20035;-79
2021/08/04 03:04:21;;;;;;;4.18;3.35;;;13.30;99.90;;;;;;5088921;28;20035;-78
2021/08/04 03:06:48;;;;;;;3.85;3.17;;;13.30;99.90;;;;;;5071941;28;20043;-78
2021/08/04 03:09:14;;;;;;;5.43;3.13;;;13.30;99.90;;;;;;5089287;28;20394;-78
2021/08/04 03:11:41;;;;;;;3.75;3.08;;;13.30;99.90;;;;;;5071303;28;20043;-78
2021/08/04 03:14:07;;;;;;;4.25;3.05;;;13.30;99.90;;;;;;5072274;28;20040;-78
2021/08/04 03:16:34;;;;;;;4.93;3.15;;;13.30;99.90;;;;;;5088226;28;20040;-78
2021/08/04 03:19:00;;;;;;;5.18;3.55;;;13.30;99.90;;;;;;5107305;28;20035;-78
2021/08/04 03:21:27;;;;;;;3.53;2.80;;;13.30;99.90;;;;;;5105706;28;20047;-78
2021/08/04 03:23:53;;;;;;;4.07;3.25;;;13.20;99.90;;;;;;5107253;28;20042;-78
2021/08/04 03:26:19;;;;;;;6.05;3.47;;;13.20;99.90;;;;;;5091859;28;20055;-78
2021/08/04 03:28:46;;;;;;;3.42;3.08;;;13.20;99.90;;;;;;5088468;28;20036;-75
2021/08/04 03:31:12;;;;;;;4.53;3.53;;;13.20;99.90;;;;;;5070070;28;20391;-75
2021/08/04 03:33:39;;;;;;;5.53;3.58;;;13.20;99.90;;;;;;5070140;28;20056;-75
2021/08/04 03:36:05;;;;;;;3.42;3.10;;;13.20;99.90;;;;;;5073277;28;20406;-75
2021/08/04 03:38:32;;;;;;;3.92;3.55;;;13.10;99.90;;;;;;5106739;28;20043;-75
2021/08/04 03:40:58;;;;;;;6.32;3.55;;;13.20;99.90;;;;;;5086665;28;20032;-75
2021/08/04 03:43:24;;;;;;;4.65;3.78;;;13.10;99.90;;;;;;5107365;28;20510;-75
2021/08/04 03:45:51;;;;;;;4.80;3.97;;;13.10;99.90;;;;;;5088032;28;20390;-75
2021/08/04 03:48:17;;;;;;;3.92;3.55;;;13.10;99.90;;;;;;5087817;28;20054;-75
2021/08/04 03:50:44;;;;;;;3.28;2.97;;;13.10;99.90;;;;;;5103293;28;20046;-75
2021/08/04 03:53:10;;;;;;;7.78;3.30;;;13.10;99.90;;;;;;5084838;28;20062;-75
2021/08/04 03:55:37;;;;;;;3.83;3.28;;;13.10;99.90;;;;;;5106201;28;20481;-78
2021/08/04 03:58:03;;;;;;;3.33;3.03;;;13.00;99.90;;;;;;5087996;28;20461;-78
2021/08/04 04:00:29;;;;;;;3.28;2.83;;;13.10;99.90;;;;;;5105016;28;20040;-78
2021/08/04 04:02:56;;;;;;;3.90;3.50;;;13.00;99.90;;;;;;5071358;28;20036;-78
2021/08/04 04:05:22;;;;;;;3.92;3.40;;;13.00;99.90;;;;;;5053333;28;20407;-79
2021/08/04 04:07:49;;;;;;;4.97;3.53;;;13.00;99.90;;;;;;5086907;28;20031;-79
2021/08/04 04:10:15;;;;;;;4.07;3.22;;;13.00;99.90;;;;;;5086814;28;20035;-79
2021/08/04 04:12:42;;;;;;;3.83;3.53;;;13.00;99.90;;;;;;5068947;28;20044;-79
2021/08/04 04:15:09;;;;;;;4.05;3.60;;;13.00;99.90;;;;;;5070569;28;20043;-78
2021/08/04 04:17:35;;;;;;;3.75;3.45;;;13.00;99.90;;;;;;5089659;28;20032;-79
2021/08/04 04:20:03;;;;;;;4.07;3.67;;;13.00;99.90;;;;;;5086508;28;20047;-79
2021/08/04 04:22:29;;;;;;;4.53;3.83;;;13.00;99.90;;;;;;5104604;28;20034;-79
2021/08/04 04:24:56;;;;;;;5.28;4.00;;;13.00;99.90;;;;;;5070414;28;20031;-79
2021/08/04 04:27:22;;;;;;;4.00;3.28;;;13.00;99.90;;;;;;5070940;28;20031;-79
2021/08/04 04:29:48;;;;;;;5.50;3.45;;;13.00;99.90;;;;;;5037637;28;20482;-79
2021/08/04 04:32:15;;;;;;;4.03;3.63;;;13.00;99.90;;;;;;5069248;28;20043;-79
2021/08/04 04:34:41;;;;;;;4.30;3.83;;;13.00;99.90;;;;;;5106120;28;20031;-79
2021/08/04 04:37:08;;;;;;;4.18;3.72;;;13.10;99.90;;;;;;5070829;28;20035;-79
2021/08/04 04:39:35;;;;;;;6.00;3.63;;;13.10;99.90;;;;;;5106297;28;20415;-79
2021/08/04 04:42:01;;;;;;;6.70;3.90;;;13.10;99.90;;;;;;5085981;28;20390;-79
2021/08/04 04:44:27;;;;;;;5.43;3.88;;;13.20;99.90;;;;;;5086962;28;20395;-79
2021/08/04 04:46:54;;;;;;;4.65;3.88;;;13.20;99.90;;;;;;5053394;28;20035;-79
2021/08/04 04:49:22;;;;;;;6.57;3.72;;;13.30;99.90;;;;;;5087579;28;20086;-78
2021/08/04 04:51:48;;;;;;;4.05;3.65;;;13.30;99.90;;;;;;5085836;28;20035;-79
2021/08/04 04:54:14;;;;;;;4.38;3.55;;;13.40;99.90;;;;;;5053369;28;20059;-78
2021/08/04 04:56:41;;;;;;;4.10;3.70;;;13.40;99.90;;;;;;5086366;28;20050;-79
2021/08/04 04:59:07;;;;;;;8.48;4.05;;;13.40;99.90;;;;;;5069365;28;20047;-78
2021/08/04 05:01:33;;;;;;;4.28;3.88;;;13.50;99.90;;;;;;5085886;28;20043;-79
2021/08/04 05:04:00;;;;;;;4.07;3.30;;;13.50;99.90;;;;;;5087373;28;20035;-79
2021/08/04 05:06:26;;;;;;;4.95;3.92;;;13.50;99.90;;;;;;5086741;28;20043;-78
2021/08/04 05:08:53;;;;;;;5.40;3.55;;;13.70;99.90;;;;;;5070315;28;20032;-79
2021/08/04 05:11:19;;;;;;;5.72;4.25;;;13.70;99.90;;;;;;5070347;27;20047;-79
2021/08/04 05:13:45;;;;;;;5.82;3.75;;;13.80;99.90;;;;;;5091203;28;20035;-79
2021/08/04 05:16:12;;;;;;;4.50;3.75;;;14.00;99.90;;;;;;5108222;28;20039;-78
2021/08/04 05:18:38;;;;;;;4.00;3.60;;;14.00;99.90;;;;;;5087904;28;20398;-79
2021/08/04 05:21:04;;;;;;;5.78;3.95;;;14.20;99.90;;;;;;5068491;28;20073;-78
2021/08/04 05:23:31;;;;;;;4.95;4.13;;;14.30;99.90;;;;;;5071443;28;20044;-79
2021/08/04 05:25:57;;;;;;;5.78;5.07;;;14.40;99.90;;;;;;5104379;28;20038;-79
2021/08/04 05:28:23;;;;;;;5.18;4.70;;;14.50;99.90;;;;;;5104886;28;20036;-79
2021/08/04 05:30:50;;;;;;;4.68;4.13;;;14.60;99.90;;;;;;5034602;28;20043;-79
2021/08/04 05:33:16;;;;;;;5.47;4.40;;;14.70;99.90;;;;;;5105436;28;20043;-79
2021/08/04 05:35:44;;;;;;;5.78;4.53;;;14.80;99.90;;;;;;5069762;28;20054;-75
2021/08/04 05:38:10;;;;;;;5.07;4.65;;;14.90;99.90;;;;;;5104956;28;20036;-75
2021/08/04 05:40:36;;;;;;;4.88;4.38;;;15.10;99.90;;;;;;5085255;28;20062;-78
2021/08/04 05:43:03;;;;;;;5.63;3.97;;;15.20;99.90;;;;;;5086708;28;20038;-76
2021/08/04 05:45:30;;;;;;;5.38;4.32;;;15.40;99.90;;;;;;5104100;28;20043;-75
2021/08/04 05:47:57;;;;;;;4.63;3.88;;;15.50;99.90;;;;;;5052873;28;20054;-75
2021/08/04 05:50:24;;;;;;;6.07;4.28;;;15.60;99.90;;;;;;5067271;28;20052;-75
2021/08/04 05:52:50;;;;;;;5.35;4.18;;;15.80;99.90;;;;;;5104279;28;20035;-75
2021/08/04 05:55:17;;;;;;;4.65;4.10;;;16.00;99.90;;;;;;5069053;28;20050;-75
2021/08/04 05:57:43;;;;;;;3.83;3.53;;;16.10;99.90;;;;;;5087102;28;20528;-79
2021/08/04 06:00:10;;;;;;;4.97;4.15;;;16.20;99.90;;;;;;5104559;28;20055;-78
2021/08/04 06:02:45;;;;;;;6.28;3.47;;;16.40;99.90;;;;;;5069954;28;20048;-79
2021/08/04 06:05:12;;;;;;;5.32;4.07;;;16.60;99.90;;;;;;5068898;28;20036;-81
2021/08/04 06:07:39;;;;;;;3.60;3.30;;;16.70;99.90;;;;;;5069899;28;20050;-81
2021/08/04 06:10:06;;;;;;;4.43;3.40;;;16.80;99.90;;;;;;5052328;28;20051;-77
2021/08/04 06:12:32;;;;;;;5.97;4.03;;;16.90;99.90;;;;;;5103177;28;20055;-75
2021/08/04 06:14:58;;;;;;;5.75;4.20;;;17.00;99.90;;;;;;5077579;28;20031;-75
2021/08/04 06:17:25;;;;;;;4.68;3.92;;;17.10;99.90;;;;;;5069575;28;20074;-75
2021/08/04 06:19:51;;;;;;;3.90;3.50;;;17.20;99.90;;;;;;5104877;28;20039;-74
2021/08/04 06:22:18;;;;;;;3.90;3.50;;;17.30;99.90;;;;;;5103072;28;20039;-75
2021/08/04 06:24:44;;;;;;;4.88;4.00;;;17.50;99.90;;;;;;5080699;28;20580;-75
2021/08/04 06:27:11;;;;;;;6.47;3.85;;;17.60;99.90;;;;;;5084620;28;20023;-75
2021/08/04 06:29:37;;;;;;;5.07;3.85;;;17.70;99.90;;;;;;5082871;28;20402;-75
2021/08/04 06:32:04;;;;;;;4.47;3.00;;;17.80;99.90;;;;;;5083816;28;20059;-75
2021/08/04 06:34:30;;;;;;;4.13;2.88;;;17.90;99.90;;;;;;5086729;28;20048;-75
2021/08/04 06:36:57;;;;;;;3.30;2.60;;;18.20;99.90;;;;;;5067860;28;20046;-75
2021/08/04 06:39:23;;;;;;;2.63;2.42;;;18.50;99.90;;;;;;5068243;28;20051;-74
2021/08/04 06:41:49;;;;;;;3.97;3.13;;;18.80;99.90;;;;;;5105618;28;20098;-75
2021/08/04 06:44:16;;;;;;;6.03;2.65;;;19.00;99.90;;;;;;5085320;28;20050;-75
2021/08/04 06:46:42;;;;;;;4.25;2.80;;;19.20;99.90;;;;;;5112034;27;20024;-75
2021/08/04 06:49:09;;;;;;;3.20;2.75;;;19.40;99.90;;;;;;5106816;27;20035;-76
2021/08/04 06:51:36;;;;;;;3.22;2.38;;;19.30;99.90;;;;;;5069463;28;20475;-75
2021/08/04 06:54:03;;;;;;;2.33;2.13;;;19.20;99.90;;;;;;5083957;28;20044;-75
2021/08/04 06:56:29;;;;;;;2.95;1.98;;;19.00;99.90;;;;;;5102594;28;20039;-79
2021/08/04 06:58:56;;;;;;;3.42;2.30;;;19.00;99.90;;;;;;5068397;28;20043;-80
2021/08/04 07:01:22;;;;;;;3.85;2.63;;;19.10;99.90;;;;;;5102095;28;20039;-80
2021/08/04 07:03:49;;;;;;;3.15;2.53;;;19.40;99.90;;;;;;5105002;28;20479;-79
2021/08/04 07:06:15;;;;;;;3.10;2.58;;;19.60;99.90;;;;;;5068649;28;20024;-79
2021/08/04 07:08:42;;;;;;;3.97;2.33;;;19.80;99.90;;;;;;5087818;28;20036;-79
2021/08/04 07:11:08;;;;;;;3.85;2.83;;;19.90;99.90;;;;;;5108491;27;20032;-75
2021/08/04 07:13:35;;;;;;;3.13;2.80;;;20.00;99.90;;;;;;5072688;28;20032;-75
2021/08/04 07:16:01;;;;;;;2.97;2.08;;;20.00;99.90;;;;;;5107132;28;20196;-74
2021/08/04 07:18:28;;;;;;;3.90;2.50;;;20.10;99.90;;;;;;5074973;28;20046;-75
2021/08/04 07:20:55;;;;;;;2.97;2.30;;;20.20;99.90;;;;;;5087014;28;20577;-74
2021/08/04 07:23:22;;;;;;;3.40;2.17;;;20.30;99.90;;;;;;5072535;28;20038;-81
2021/08/04 07:25:49;;;;;;;3.53;2.28;;;20.40;99.90;;;;;;5107293;28;20034;-75
2021/08/04 07:28:15;;;;;;;3.38;2.28;;;20.50;99.80;;;;;;5089042;28;20048;-75
2021/08/04 07:30:42;;;;;;;2.45;1.85;;;20.60;99.50;;;;;;5105200;27;20044;-75
2021/08/04 07:33:08;;;;;;;2.78;1.83;;;20.70;99.20;;;;;;5107261;28;20089;-75
2021/08/04 07:35:34;;;;;;;3.58;2.22;;;20.80;98.90;;;;;;5086224;28;20043;-75
2021/08/04 07:38:01;;;;;;;2.33;1.50;;;20.90;98.80;;;;;;5072535;28;20038;-76
2021/08/04 07:40:27;;;;;;;2.45;1.80;;;21.00;98.70;;;;;;5070282;28;20047;-75
2021/08/04 07:42:54;;;;;;;2.75;2.22;;;21.10;98.50;;;;;;5105572;27;20501;-75
2021/08/04 07:45:20;;;;;;;3.15;2.00;;;21.20;98.10;;;;;;5106932;28;20027;-76
2021/08/04 07:47:47;;;;;;;1.95;1.60;;;21.20;98.10;;;;;;5089071;28;20588;-75
2021/08/04 07:50:14;;;;;;;3.03;2.15;;;21.30;98.40;;;;;;5088523;28;20035;-75
2021/08/04 07:52:41;;;;;;;2.92;1.90;;;21.40;98.00;;;;;;5087283;28;20035;-76
2021/08/04 07:55:08;;;;;;;2.75;1.60;;;21.50;97.90;;;;;;5087225;28;20384;-76
2021/08/04 07:57:34;;;;;;;3.13;1.98;;;21.60;97.80;;;;;;5086848;28;20039;-76
2021/08/04 08:00:01;;;;;;;2.88;2.00;;;21.70;97.60;;;;;;5054867;28;20051;-75
2021/08/04 08:02:39;;;;;;;3.28;1.85;;;21.70;97.30;;;;;;5087396;28;20040;-76
2021/08/04 08:05:07;;;;;;;2.50;2.10;;;21.70;97.30;;;;;;5072019;28;20028;-75
2021/08/04 08:07:33;;;;;;;3.92;2.10;;;21.80;97.30;;;;;;5070465;28;20101;-76
2021/08/04 08:09:59;;;;;;;4.65;2.83;;;21.90;97.20;;;;;;5054388;28;20043;-76
2021/08/04 08:12:26;;;;;;;2.78;1.67;;;22.00;96.50;;;;;;5087966;28;20047;-75
2021/08/04 08:14:52;;;;;;;3.65;1.80;;;22.00;96.60;;;;;;5070767;27;20066;-75
2021/08/04 08:17:19;;;;;;;2.83;1.52;;;22.10;96.70;;;;;;5103399;28;20039;-76
2021/08/04 08:19:46;;;;;;;3.28;2.30;;;22.30;96.70;;;;;;5070730;28;20039;-75
2021/08/04 08:22:13;;;;;;;1.92;1.33;;;22.50;96.20;;;;;;5071440;28;20036;-75
2021/08/04 08:24:39;;;;;;;2.95;1.80;;;22.60;95.90;;;;;;5086443;27;20036;-76
2021/08/04 08:27:05;;;;;;;2.95;1.75;;;22.70;95.60;;;;;;5034834;28;20036;-75
2021/08/04 08:29:32;;;;;;;3.00;1.60;;;22.80;95.50;;;;;;5071479;28;20032;-75
2021/08/04 08:31:58;;;;;;;2.95;1.30;;;22.90;95.00;;;;;;5085945;28;20483;-75
2021/08/04 08:34:24;;;;;;;2.60;1.73;;;22.90;94.70;;;;;;5087096;28;20118;-76
2021/08/04 08:36:51;;;;;;;2.42;1.42;;;23.10;94.40;;;;;;5054288;28;20529;-76
2021/08/04 08:39:17;;;;;;;3.00;1.60;;;23.20;94.10;;;;;;5053905;28;20043;-75
2021/08/04 08:41:45;;;;;;;2.00;1.13;;;23.40;93.80;;;;;;5085528;28;20048;-75
2021/08/04 08:44:12;;;;;;;2.42;1.55;;;23.50;93.50;;;;;;5087323;28;20072;-75
2021/08/04 08:46:38;;;;;;;3.17;1.50;;;23.70;93.30;;;;;;5072040;28;20468;-75
2021/08/04 08:49:05;;;;;;;4.35;1.90;;;23.90;93.20;;;;;;5071388;28;20039;-75
2021/08/04 08:51:32;;;;;;;2.67;1.92;;;24.00;92.80;;;;;;5085482;28;20042;-75
2021/08/04 08:53:58;;;;;;;1.92;1.17;;;24.10;92.30;;;;;;5087358;28;20039;-76
2021/08/04 08:56:25;;;;;;;5.15;2.30;;;24.30;91.90;;;;;;5104897;28;20050;-75
2021/08/04 08:58:54;;;;;;;3.35;1.58;;;24.40;91.30;;;;;;5088230;28;20044;-76
2021/08/04 09:01:39;;;;;;;2.40;1.45;;;24.50;90.70;;;;;;5103181;28;20043;-75
2021/08/04 09:04:09;;;;;;;2.90;1.88;;;24.60;90.90;;;;;;5105570;28;20038;-75
2021/08/04 09:06:50;;;;;;;2.10;1.30;;;24.60;90.30;;;;;;5086497;28;20046;-75
2021/08/04 09:09:20;;;;;;;2.30;1.02;;;24.50;90.10;;;;;;5086683;28;20494;-75
2021/08/04 09:11:54;;;;;;;2.72;1.05;;;24.60;89.10;;;;;;5070206;28;20516;-75
2021/08/04 09:14:31;;;;;;;1.98;1.15;;;24.60;88.10;;;;;;5084025;28;20043;-75
2021/08/04 09:16:59;;;;;;;2.38;0.82;;;24.70;87.80;;;;;;5085585;28;20031;-75
2021/08/04 09:19:25;;;;;;;2.72;1.00;;;24.70;87.80;;;;;;5070275;28;20036;-75
2021/08/04 09:22:15;;;;;;;1.95;0.82;;;24.70;84.60;;;;;;5069109;28;20039;-75
2021/08/04 09:25:02;;;;;;;4.03;1.42;;;24.80;83.10;;;;;;5085555;28;20024;-75
2021/08/04 09:27:56;;;;;;;2.63;1.00;;;25.00;82.50;;;;;;5085147;28;20445;-75
2021/08/04 09:30:32;;;;;;;5.00;1.00;;;25.20;82.80;;;;;;5084806;28;20048;-74
2021/08/04 09:33:28;;;;;;;1.98;0.90;;;25.40;81.30;;;;;;5104128;28;20037;-75
2021/08/04 09:35:57;;;;;;;1.85;1.20;;;25.40;81.20;;;;;;5094849;28;20051;-75
2021/08/04 09:38:24;;;;;;;3.00;1.20;;;25.40;81.80;;;;;;5086244;28;20031;-75
2021/08/04 09:41:10;;;;;;;1.80;1.05;;;25.50;80.20;;;;;;5084300;28;20528;-78
2021/08/04 09:43:37;;;;;;;3.05;1.20;;;25.50;80.10;;;;;;5104427;28;20053;-78
2021/08/04 09:46:04;;;;;;;3.22;1.45;;;25.40;80.80;;;;;;5104364;28;20031;-78
2021/08/04 09:48:32;;;;;;;1.85;1.00;;;25.50;79.40;;;;;;5104641;28;20035;-78
2021/08/04 09:51:03;;;;;;;2.58;1.20;;;25.60;79.00;;;;;;5102951;28;20024;-79
2021/08/04 09:53:32;;;;;;;2.83;0.90;;;25.60;78.30;;;;;;5085436;28;20039;-78
2021/08/04 09:56:04;;;;;;;3.42;1.50;;;25.80;78.90;;;;;;5052561;28;20044;-78
2021/08/04 09:58:30;;;;;;;2.90;1.40;;;25.90;77.60;;;;;;5104586;28;20028;-78
2021/08/04 10:01:01;;;;;;;2.40;1.33;;;26.00;76.80;;;;;;5084192;28;20034;-78
2021/08/04 10:03:29;;;;;;;4.75;1.75;;;26.10;77.20;;;;;;5068682;28;20046;-78
2021/08/04 10:05:56;;;;;;;3.08;1.10;;;26.20;76.10;;;;;;5085169;28;20046;-78
2021/08/04 10:08:23;;;;;;;3.38;1.60;;;26.30;75.30;;;;;;5105109;28;20035;-78
2021/08/04 10:10:55;;;;;;;3.60;1.30;;;26.50;73.40;;;;;;5104137;28;20383;-78
2021/08/04 10:13:31;;;;;;;2.00;1.00;;;26.50;71.90;;;;;;5105618;28;20070;-79
2021/08/04 10:15:59;;;;;;;4.40;1.42;;;26.60;71.60;;;;;;5071276;28;20098;-78
2021/08/04 10:18:30;;;;;;;2.55;0.80;;;26.60;69.90;;;;;;5085999;28;20044;-79
2021/08/04 10:21:07;;;;;;;4.85;1.10;;;26.80;70.50;;;;;;5068308;28;20039;-78
2021/08/04 10:23:34;;;;;;;3.30;1.65;;;27.00;69.90;;;;;;5104305;28;20043;-78
2021/08/04 10:26:01;;;;;;;2.53;1.10;;;27.20;69.40;;;;;;5068598;28;20044;-80
2021/08/04 10:28:29;;;;;;;1.98;0.95;;;27.30;69.40;;;;;;5085742;28;20035;-79
2021/08/04 10:30:58;;;;;;;3.47;0.90;;;27.40;66.80;;;;;;5084056;28;20039;-80
2021/08/04 10:33:24;;;;;;;3.55;1.20;;;27.50;65.70;;;;;;5052259;28;20048;-80
2021/08/04 10:35:53;;;;;;;2.75;0.80;;;27.50;66.30;;;;;;5064113;28;20540;-80
2021/08/04 10:38:23;;;;;;;2.55;0.95;;;27.60;65.70;;;;;;5081278;28;20034;-83
2021/08/04 10:41:13;;;;;;;2.00;1.00;;;27.70;65.00;;;;;;5080852;28;21449;-79
2021/08/04 10:43:46;;;;;;;1.45;0.70;;;27.90;64.10;;;;;;5084460;28;20079;-79
2021/08/04 10:46:28;;;;;;;1.35;0.75;;;28.00;64.00;;;;;;5072597;28;20372;-80
2021/08/04 10:49:04;;;;;;;1.42;0.63;;;28.20;63.00;;;;;;5075313;28;20470;-80
2021/08/04 10:51:41;;;;;;;2.53;1.20;;;28.30;63.00;;;;;;5107212;27;20039;-79
2021/08/04 10:54:30;;;;;;;2.30;1.15;;;28.40;62.10;;;;;;5089932;27;20047;-80
2021/08/04 10:56:56;;;;;;;2.65;1.20;;;28.40;61.80;;;;;;5108186;27;20051;-80
2021/08/04 10:59:26;;;;;;;2.22;0.98;;;28.50;62.90;;;;;;5089892;28;20030;-80
2021/08/04 11:02:17;;;;;;;3.65;1.35;;;28.70;63.10;;;;;;5106423;28;20040;-80
2021/08/04 11:04:43;;;;;;;3.65;1.15;;;28.90;62.00;;;;;;5093979;28;20509;-80
2021/08/04 11:07:13;;;;;;;2.45;1.40;;;29.00;62.20;;;;;;5072681;28;20390;-80
2021/08/04 11:09:42;;;;;;;4.10;1.35;;;29.10;59.90;;;;;;5108102;28;20390;-80
2021/08/04 11:12:10;;;;;;;2.20;1.00;;;29.00;59.70;;;;;;5104803;27;20039;-80
2021/08/04 11:15:01;;;;;;;2.45;1.10;;;29.10;61.10;;;;;;5107469;28;20027;-75
2021/08/04 11:18:19;;;;;;;3.38;0.93;;;29.50;61.30;;;;;;5090372;28;20047;-79
2021/08/04 11:21:20;;;;;;;2.08;0.80;;;29.90;59.90;;;;;;5080196;28;20370;-80
2021/08/04 11:23:48;;;;;;;1.70;1.00;;;29.50;59.60;;;;;;5038953;28;20348;-80
2021/08/04 11:26:23;;;;;;;2.78;1.15;;;29.50;59.60;;;;;;5106447;28;20482;-79
2021/08/04 11:28:49;;;;;;;1.92;0.90;;;29.30;58.80;;;;;;5087591;28;20020;-80
2021/08/04 11:31:17;;;;;;;1.63;0.75;;;29.20;59.00;;;;;;5087059;28;20039;-80
2021/08/04 11:33:44;;;;;;;1.80;0.80;;;29.50;57.90;;;;;;5072626;28;20414;-80
2021/08/04 11:36:16;;;;;;;1.98;0.70;;;29.90;57.10;;;;;;5106682;28;20036;-80
2021/08/04 11:39:03;;;;;;;1.75;0.73;;;30.40;57.10;;;;;;5088987;28;20384;-80
2021/08/04 11:41:38;;;;;;;2.05;0.80;;;31.10;56.00;;;;;;5104798;28;20398;-75
2021/08/04 11:44:09;;;;;;;1.70;0.88;;;31.50;54.70;;;;;;5070764;28;20121;-75
2021/08/04 11:47:10;;;;;;;1.57;0.90;;;31.80;55.20;;;;;;5106506;28;20028;-75
2021/08/04 11:49:49;;;;;;;3.00;1.35;;;32.10;52.90;;;;;;5106869;28;20027;-75
2021/08/04 11:52:23;;;;;;;1.90;0.90;;;32.40;50.60;;;;;;5046462;28;20491;-75
2021/08/04 11:54:57;;;;;;;1.65;0.80;;;32.40;51.20;;;;;;5102888;28;20027;-80
2021/08/04 11:57:42;;;;;;;1.42;0.60;;;32.60;50.00;;;;;;5106697;28;20059;-79
2021/08/04 12:00:20;;;;;;;2.25;0.93;;;32.80;50.40;;;;;;5106847;28;20047;-80
2021/08/04 12:02:47;;;;;;;1.95;0.90;;;32.90;49.60;;;;;;5086868;28;20059;-80
2021/08/04 12:05:15;;;;;;;2.35;0.85;;;32.90;49.30;;;;;;5090944;28;20040;-75
2021/08/04 12:07:42;;;;;;;2.30;0.73;;;32.80;47.80;;;;;;5074241;28;20032;-75
2021/08/04 12:10:11;;;;;;;2.90;0.88;;;32.80;48.00;;;;;;5106235;28;20028;-75
2021/08/04 12:12:41;;;;;;;2.55;0.73;;;32.50;47.90;;;;;;5107000;27;20035;-75
2021/08/04 12:15:28;;;;;;;2.60;1.00;;;32.50;48.30;;;;;;5070532;28;20035;-75
2021/08/04 12:18:00;;;;;;;2.17;0.85;;;32.90;48.00;;;;;;5069187;28;20058;-75
2021/08/04 12:20:29;;;;;;;3.22;0.80;;;33.20;46.70;;;;;;5105179;28;20051;-79
2021/08/04 12:23:00;;;;;;;1.63;0.80;;;32.70;46.80;;;;;;5106125;28;20038;-79
2021/08/04 12:25:27;;;;;;;1.58;0.80;;;32.00;47.50;;;;;;5105365;28;20028;-79
2021/08/04 12:27:57;;;;;;;2.75;0.85;;;31.30;47.70;;;;;;5104696;28;20035;-79
2021/08/04 12:30:36;;;;;;;2.25;0.80;;;30.80;47.10;;;;;;5105921;27;20031;-80
2021/08/04 12:33:07;;;;;;;1.00;0.60;;;31.00;47.80;;;;;;5055340;28;20059;-80
2021/08/04 12:35:47;;;;;;;1.35;0.60;;;31.60;46.50;;;;;;5105259;28;20501;-79
2021/08/04 12:38:16;;;;;;;1.60;0.70;;;32.20;44.20;;;;;;5105342;28;20034;-79
2021/08/04 12:40:48;;;;;;;2.05;0.90;;;32.80;44.10;;;;;;5104192;28;20028;-79
2021/08/04 12:43:16;;;;;;;1.23;0.70;;;33.40;44.10;;;;;;5084494;28;20410;-80
2021/08/04 12:45:54;;;;;;;1.23;0.77;;;34.10;44.00;;;;;;5070014;28;20091;-80
2021/08/04 12:48:33;;;;;;;1.70;0.70;;;34.70;44.20;;;;;;5087264;28;20040;-80
2021/08/04 12:51:00;;;;;;;4.07;0.90;;;35.30;43.30;;;;;;5085789;28;20501;-81
2021/08/04 12:53:27;;;;;;;1.92;1.00;;;35.80;42.10;;;;;;5036700;28;20043;-86
2021/08/04 12:56:19;;;;;;;1.45;0.80;;;36.30;40.70;;;;;;5087324;28;20054;-82
2021/08/04 12:59:03;;;;;;;4.57;0.98;;;36.30;39.30;;;;;;5087504;28;20209;-81
2021/08/04 13:01:36;;;;;;;3.30;1.10;;;35.30;39.60;;;;;;5104080;28;20039;-81